sensor_id;sensor_type;location;lat;lon;timestamp;temperature;humidity
69464;DHT22;56665;41.106;16.688;2022-08-20T00:00:20;25.72;60.69
69464;DHT22;56665;41.106;16.688;2022-08-20T00:03:36;25.69;60.65
69464;DHT22;56665;41.106;16.688;2022-08-20T00:06:40;25.66;60.82
69464;DHT22;56665;41.106;16.688;2022-08-20T00:09:44;25.68;60.73
69464;DHT22;56665;41.106;16.688;2022-08-20T00:12:48;25.68;60.80
69464;DHT22;56665;41.106;16.688;2022-08-20T00:15:52;25.69;60.76
69464;DHT22;56665;41.106;16.688;2022-08-20T00:19:02;25.65;60.78
69464;DHT22;56665;41.106;16.688;2022-08-20T00:22:06;25.59;60.95
69464;DHT22;56665;41.106;16.688;2022-08-20T00:25:11;25.59;60.89
69464;DHT22;56665;41.106;16.688;2022-08-20T00:28:15;25.51;61.10
69464;DHT22;56665;41.106;16.688;2022-08-20T00:31:20;25.54;61.21
69464;DHT22;56665;41.106;16.688;2022-08-20T00:34:24;25.51;61.21
69464;DHT22;56665;41.106;16.688;2022-08-20T00:37:27;25.48;61.35
69464;DHT22;56665;41.106;16.688;2022-08-20T00:40:36;25.51;61.46
69464;DHT22;56665;41.106;16.688;2022-08-20T00:44:11;25.49;61.56
69464;DHT22;56665;41.106;16.688;2022-08-20T00:47:16;25.51;61.58
69464;DHT22;56665;41.106;16.688;2022-08-20T00:50:26;25.49;61.69
69464;DHT22;56665;41.106;16.688;2022-08-20T00:53:33;25.45;61.93
69464;DHT22;56665;41.106;16.688;2022-08-20T00:56:39;25.46;62.07
69464;DHT22;56665;41.106;16.688;2022-08-20T00:59:47;25.49;62.06
69464;DHT22;56665;41.106;16.688;2022-08-20T01:02:54;25.48;62.22
69464;DHT22;56665;41.106;16.688;2022-08-20T01:05:58;25.46;62.30
69464;DHT22;56665;41.106;16.688;2022-08-20T01:09:01;25.45;62.45
69464;DHT22;56665;41.106;16.688;2022-08-20T01:12:06;25.45;62.60
69464;DHT22;56665;41.106;16.688;2022-08-20T01:15:12;25.42;62.66
69464;DHT22;56665;41.106;16.688;2022-08-20T01:18:19;25.37;62.79
69464;DHT22;56665;41.106;16.688;2022-08-20T01:21:24;25.35;62.90
69464;DHT22;56665;41.106;16.688;2022-08-20T01:24:36;25.32;63.06
69464;DHT22;56665;41.106;16.688;2022-08-20T01:27:41;25.27;63.18
69464;DHT22;56665;41.106;16.688;2022-08-20T01:30:45;25.25;63.30
69464;DHT22;56665;41.106;16.688;2022-08-20T01:33:50;25.21;63.53
69464;DHT22;56665;41.106;16.688;2022-08-20T01:36:56;25.14;63.61
69464;DHT22;56665;41.106;16.688;2022-08-20T01:40:00;25.11;63.67
69464;DHT22;56665;41.106;16.688;2022-08-20T01:43:05;25.08;63.76
69464;DHT22;56665;41.106;16.688;2022-08-20T01:46:13;25.08;63.69
69464;DHT22;56665;41.106;16.688;2022-08-20T01:49:19;25.06;63.81
69464;DHT22;56665;41.106;16.688;2022-08-20T01:52:27;25.00;63.98
69464;DHT22;56665;41.106;16.688;2022-08-20T01:55:33;24.97;64.04
69464;DHT22;56665;41.106;16.688;2022-08-20T01:58:40;24.96;64.18
69464;DHT22;56665;41.106;16.688;2022-08-20T02:01:44;24.93;64.22
69464;DHT22;56665;41.106;16.688;2022-08-20T02:04:47;24.91;64.28
69464;DHT22;56665;41.106;16.688;2022-08-20T02:07:51;24.88;64.32
69464;DHT22;56665;41.106;16.688;2022-08-20T02:10:55;24.87;64.38
69464;DHT22;56665;41.106;16.688;2022-08-20T02:14:00;24.84;64.48
69464;DHT22;56665;41.106;16.688;2022-08-20T02:17:03;24.82;64.49
69464;DHT22;56665;41.106;16.688;2022-08-20T02:20:13;24.80;64.57
69464;DHT22;56665;41.106;16.688;2022-08-20T02:23:18;24.80;64.51
69464;DHT22;56665;41.106;16.688;2022-08-20T02:26:23;24.76;64.71
69464;DHT22;56665;41.106;16.688;2022-08-20T02:29:28;24.79;64.55
69464;DHT22;56665;41.106;16.688;2022-08-20T02:32:32;24.73;64.70
69464;DHT22;56665;41.106;16.688;2022-08-20T02:35:37;24.70;64.78
69464;DHT22;56665;41.106;16.688;2022-08-20T02:38:42;24.69;64.78
69464;DHT22;56665;41.106;16.688;2022-08-20T02:41:46;24.69;64.72
69464;DHT22;56665;41.106;16.688;2022-08-20T02:44:51;24.63;64.75
69464;DHT22;56665;41.106;16.688;2022-08-20T02:47:56;24.60;64.86
69464;DHT22;56665;41.106;16.688;2022-08-20T02:51:03;24.55;65.00
69464;DHT22;56665;41.106;16.688;2022-08-20T02:54:08;24.55;65.09
69464;DHT22;56665;41.106;16.688;2022-08-20T02:57:13;24.57;64.68
69464;DHT22;56665;41.106;16.688;2022-08-20T03:00:20;24.55;64.90
69464;DHT22;56665;41.106;16.688;2022-08-20T03:03:24;24.56;64.79
69464;DHT22;56665;41.106;16.688;2022-08-20T03:06:28;24.62;64.61
69464;DHT22;56665;41.106;16.688;2022-08-20T03:09:32;24.62;64.54
69464;DHT22;56665;41.106;16.688;2022-08-20T03:12:36;24.69;64.35
69464;DHT22;56665;41.106;16.688;2022-08-20T03:15:47;24.70;64.14
69464;DHT22;56665;41.106;16.688;2022-08-20T03:18:51;24.70;64.21
69464;DHT22;56665;41.106;16.688;2022-08-20T03:21:55;24.66;64.08
69464;DHT22;56665;41.106;16.688;2022-08-20T03:24:58;24.63;64.26
69464;DHT22;56665;41.106;16.688;2022-08-20T03:28:03;24.64;64.16
69464;DHT22;56665;41.106;16.688;2022-08-20T03:31:07;24.64;64.05
69464;DHT22;56665;41.106;16.688;2022-08-20T03:34:12;24.63;64.19
69464;DHT22;56665;41.106;16.688;2022-08-20T03:37:16;24.63;64.05
69464;DHT22;56665;41.106;16.688;2022-08-20T03:40:28;24.64;64.12
69464;DHT22;56665;41.106;16.688;2022-08-20T03:43:32;24.60;64.01
69464;DHT22;56665;41.106;16.688;2022-08-20T03:46:35;24.63;64.12
69464;DHT22;56665;41.106;16.688;2022-08-20T03:49:41;24.60;64.12
69464;DHT22;56665;41.106;16.688;2022-08-20T03:52:44;24.64;64.07
69464;DHT22;56665;41.106;16.688;2022-08-20T03:55:48;24.64;63.89
69464;DHT22;56665;41.106;16.688;2022-08-20T03:58:53;24.63;63.97
69464;DHT22;56665;41.106;16.688;2022-08-20T04:01:58;24.63;63.93
69464;DHT22;56665;41.106;16.688;2022-08-20T04:05:02;24.62;63.97
69464;DHT22;56665;41.106;16.688;2022-08-20T04:08:16;24.56;64.08
69464;DHT22;56665;41.106;16.688;2022-08-20T04:11:20;24.55;64.20
69464;DHT22;56665;41.106;16.688;2022-08-20T04:14:24;24.48;64.22
69464;DHT22;56665;41.106;16.688;2022-08-20T04:17:28;24.52;64.26
69464;DHT22;56665;41.106;16.688;2022-08-20T04:20:32;24.53;64.12
69464;DHT22;56665;41.106;16.688;2022-08-20T04:23:36;24.52;64.04
69464;DHT22;56665;41.106;16.688;2022-08-20T04:26:42;24.59;63.97
69464;DHT22;56665;41.106;16.688;2022-08-20T04:29:46;24.60;64.00
69464;DHT22;56665;41.106;16.688;2022-08-20T04:32:50;24.64;63.89
69464;DHT22;56665;41.106;16.688;2022-08-20T04:35:54;24.70;63.64
69464;DHT22;56665;41.106;16.688;2022-08-20T04:39:04;24.79;63.42
69464;DHT22;56665;41.106;16.688;2022-08-20T04:42:07;24.82;63.28
69464;DHT22;56665;41.106;16.688;2022-08-20T04:45:11;24.88;63.02
69464;DHT22;56665;41.106;16.688;2022-08-20T04:48:15;24.94;62.93
69464;DHT22;56665;41.106;16.688;2022-08-20T04:51:19;25.06;62.61
69464;DHT22;56665;41.106;16.688;2022-08-20T04:54:23;25.15;62.18
69464;DHT22;56665;41.106;16.688;2022-08-20T04:57:28;25.22;62.04
69464;DHT22;56665;41.106;16.688;2022-08-20T05:00:32;25.34;61.79
69464;DHT22;56665;41.106;16.688;2022-08-20T05:03:37;25.41;61.57
69464;DHT22;56665;41.106;16.688;2022-08-20T05:06:41;25.49;61.49
69464;DHT22;56665;41.106;16.688;2022-08-20T05:09:45;25.59;61.08
69464;DHT22;56665;41.106;16.688;2022-08-20T05:12:50;25.76;60.87
69464;DHT22;56665;41.106;16.688;2022-08-20T05:15:54;25.94;60.36
69464;DHT22;56665;41.106;16.688;2022-08-20T05:18:58;26.10;59.92
69464;DHT22;56665;41.106;16.688;2022-08-20T05:22:03;26.30;59.68
69464;DHT22;56665;41.106;16.688;2022-08-20T05:25:10;26.47;59.22
69464;DHT22;56665;41.106;16.688;2022-08-20T05:28:23;26.57;59.09
69464;DHT22;56665;41.106;16.688;2022-08-20T05:31:28;26.82;58.46
69464;DHT22;56665;41.106;16.688;2022-08-20T05:34:33;27.03;57.92
69464;DHT22;56665;41.106;16.688;2022-08-20T05:37:38;27.33;57.11
69464;DHT22;56665;41.106;16.688;2022-08-20T05:40:44;27.57;56.57
69464;DHT22;56665;41.106;16.688;2022-08-20T05:43:47;27.81;55.99
69464;DHT22;56665;41.106;16.688;2022-08-20T05:46:51;28.09;55.35
69464;DHT22;56665;41.106;16.688;2022-08-20T05:49:55;28.31;54.82
69464;DHT22;56665;41.106;16.688;2022-08-20T05:52:59;28.50;54.28
69464;DHT22;56665;41.106;16.688;2022-08-20T05:56:04;28.69;53.76
69464;DHT22;56665;41.106;16.688;2022-08-20T05:59:08;28.84;53.46
69464;DHT22;56665;41.106;16.688;2022-08-20T06:02:12;29.03;53.07
69464;DHT22;56665;41.106;16.688;2022-08-20T06:05:34;29.27;52.60
69464;DHT22;56665;41.106;16.688;2022-08-20T06:08:38;29.30;52.31
69464;DHT22;56665;41.106;16.688;2022-08-20T06:11:42;29.37;52.12
69464;DHT22;56665;41.106;16.688;2022-08-20T06:14:46;29.55;51.73
69464;DHT22;56665;41.106;16.688;2022-08-20T06:17:49;29.76;51.22
69464;DHT22;56665;41.106;16.688;2022-08-20T06:20:53;29.98;50.89
69464;DHT22;56665;41.106;16.688;2022-08-20T06:23:57;30.30;50.24
69464;DHT22;56665;41.106;16.688;2022-08-20T06:27:03;30.48;49.86
69464;DHT22;56665;41.106;16.688;2022-08-20T06:30:12;30.71;49.39
69464;DHT22;56665;41.106;16.688;2022-08-20T06:33:15;30.74;49.18
69464;DHT22;56665;41.106;16.688;2022-08-20T06:36:19;31.00;48.59
69464;DHT22;56665;41.106;16.688;2022-08-20T06:39:25;31.16;48.12
69464;DHT22;56665;41.106;16.688;2022-08-20T06:42:31;31.47;47.68
69464;DHT22;56665;41.106;16.688;2022-08-20T06:45:35;31.81;46.99
69464;DHT22;56665;41.106;16.688;2022-08-20T06:48:41;32.08;46.66
69464;DHT22;56665;41.106;16.688;2022-08-20T06:51:44;32.18;46.45
69464;DHT22;56665;41.106;16.688;2022-08-20T06:54:49;32.25;46.21
69464;DHT22;56665;41.106;16.688;2022-08-20T06:57:57;32.45;46.06
69464;DHT22;56665;41.106;16.688;2022-08-20T07:01:01;32.45;46.01
69464;DHT22;56665;41.106;16.688;2022-08-20T07:04:05;32.79;45.47
69464;DHT22;56665;41.106;16.688;2022-08-20T07:07:17;32.99;44.85
69464;DHT22;56665;41.106;16.688;2022-08-20T07:10:23;33.10;44.24
69464;DHT22;56665;41.106;16.688;2022-08-20T07:13:28;33.27;44.26
69464;DHT22;56665;41.106;16.688;2022-08-20T07:16:31;33.47;44.03
69464;DHT22;56665;41.106;16.688;2022-08-20T07:19:35;33.53;44.08
69464;DHT22;56665;41.106;16.688;2022-08-20T07:22:40;33.75;43.52
69464;DHT22;56665;41.106;16.688;2022-08-20T07:25:46;34.02;43.02
69464;DHT22;56665;41.106;16.688;2022-08-20T07:28:51;34.22;42.59
69464;DHT22;56665;41.106;16.688;2022-08-20T07:31:54;34.40;42.50
69464;DHT22;56665;41.106;16.688;2022-08-20T07:35:18;34.71;42.07
69464;DHT22;56665;41.106;16.688;2022-08-20T07:38:23;35.04;41.52
69464;DHT22;56665;41.106;16.688;2022-08-20T07:41:27;35.21;41.39
69464;DHT22;56665;41.106;16.688;2022-08-20T07:44:30;35.52;40.73
69464;DHT22;56665;41.106;16.688;2022-08-20T07:47:39;35.95;39.96
69464;DHT22;56665;41.106;16.688;2022-08-20T07:50:44;36.29;39.37
69464;DHT22;56665;41.106;16.688;2022-08-20T07:53:52;36.09;39.53
69464;DHT22;56665;41.106;16.688;2022-08-20T07:57:02;35.78;40.14
69464;DHT22;56665;41.106;16.688;2022-08-20T08:00:07;36.05;39.58
69464;DHT22;56665;41.106;16.688;2022-08-20T08:03:13;36.67;38.92
69464;DHT22;56665;41.106;16.688;2022-08-20T08:06:18;37.18;37.86
69464;DHT22;56665;41.106;16.688;2022-08-20T08:09:22;37.99;36.79
69464;DHT22;56665;41.106;16.688;2022-08-20T08:12:34;39.18;35.17
69464;DHT22;56665;41.106;16.688;2022-08-20T08:15:43;40.29;33.50
69464;DHT22;56665;41.106;16.688;2022-08-20T08:18:50;41.48;32.06
69464;DHT22;56665;41.106;16.688;2022-08-20T08:21:55;43.18;30.23
69464;DHT22;56665;41.106;16.688;2022-08-20T08:24:59;44.41;28.89
69464;DHT22;56665;41.106;16.688;2022-08-20T08:28:05;43.17;29.96
69464;DHT22;56665;41.106;16.688;2022-08-20T08:31:10;39.90;33.17
69464;DHT22;56665;41.106;16.688;2022-08-20T08:34:13;38.65;34.93
69464;DHT22;56665;41.106;16.688;2022-08-20T08:37:17;40.89;32.21
69464;DHT22;56665;41.106;16.688;2022-08-20T08:40:21;42.97;29.89
69464;DHT22;56665;41.106;16.688;2022-08-20T08:43:26;41.47;31.10
69464;DHT22;56665;41.106;16.688;2022-08-20T08:46:31;41.92;30.63
69464;DHT22;56665;41.106;16.688;2022-08-20T08:49:39;39.71;33.59
69464;DHT22;56665;41.106;16.688;2022-08-20T08:52:43;37.63;36.03
69464;DHT22;56665;41.106;16.688;2022-08-20T08:55:48;36.50;37.95
69464;DHT22;56665;41.106;16.688;2022-08-20T08:59:02;39.10;34.75
69464;DHT22;56665;41.106;16.688;2022-08-20T09:02:06;41.72;31.32
69464;DHT22;56665;41.106;16.688;2022-08-20T09:05:14;43.62;29.05
69464;DHT22;56665;41.106;16.688;2022-08-20T09:08:26;45.09;27.49
69464;DHT22;56665;41.106;16.688;2022-08-20T09:11:45;44.56;28.21
69464;DHT22;56665;41.106;16.688;2022-08-20T09:14:50;41.67;32.80
69464;DHT22;56665;41.106;16.688;2022-08-20T09:17:54;37.89;38.58
69464;DHT22;56665;41.106;16.688;2022-08-20T09:20:57;35.96;41.85
69464;DHT22;56665;41.106;16.688;2022-08-20T09:24:01;35.96;42.33
69464;DHT22;56665;41.106;16.688;2022-08-20T09:27:05;35.17;43.62
69464;DHT22;56665;41.106;16.688;2022-08-20T09:30:10;34.18;45.29
69464;DHT22;56665;41.106;16.688;2022-08-20T09:33:13;32.99;46.79
69464;DHT22;56665;41.106;16.688;2022-08-20T09:36:17;32.59;47.21
69464;DHT22;56665;41.106;16.688;2022-08-20T09:39:21;32.38;47.84
69464;DHT22;56665;41.106;16.688;2022-08-20T09:42:28;34.25;45.05
69464;DHT22;56665;41.106;16.688;2022-08-20T09:45:35;35.66;42.99
69464;DHT22;56665;41.106;16.688;2022-08-20T09:48:41;36.40;41.69
69464;DHT22;56665;41.106;16.688;2022-08-20T09:51:44;34.89;43.67
69464;DHT22;56665;41.106;16.688;2022-08-20T09:54:48;33.61;46.08
69464;DHT22;56665;41.106;16.688;2022-08-20T09:57:52;32.80;47.59
69464;DHT22;56665;41.106;16.688;2022-08-20T10:00:58;32.10;48.42
69464;DHT22;56665;41.106;16.688;2022-08-20T10:04:03;32.65;47.50
69464;DHT22;56665;41.106;16.688;2022-08-20T10:07:07;32.66;47.46
69464;DHT22;56665;41.106;16.688;2022-08-20T10:10:13;32.51;47.59
69464;DHT22;56665;41.106;16.688;2022-08-20T10:13:17;33.62;45.59
69464;DHT22;56665;41.106;16.688;2022-08-20T10:16:22;35.08;43.14
69464;DHT22;56665;41.106;16.688;2022-08-20T10:19:27;36.19;41.11
69464;DHT22;56665;41.106;16.688;2022-08-20T10:22:32;36.50;40.51
69464;DHT22;56665;41.106;16.688;2022-08-20T10:25:36;36.85;40.09
69464;DHT22;56665;41.106;16.688;2022-08-20T10:28:40;37.24;39.16
69464;DHT22;56665;41.106;16.688;2022-08-20T10:31:44;36.41;40.03
69464;DHT22;56665;41.106;16.688;2022-08-20T10:34:48;34.94;42.01
69464;DHT22;56665;41.106;16.688;2022-08-20T10:37:52;33.78;44.39
69464;DHT22;56665;41.106;16.688;2022-08-20T10:40:55;32.98;46.03
69464;DHT22;56665;41.106;16.688;2022-08-20T10:44:01;32.24;47.86
69464;DHT22;56665;41.106;16.688;2022-08-20T10:47:21;32.03;49.05
69464;DHT22;56665;41.106;16.688;2022-08-20T10:50:25;31.90;49.72
69464;DHT22;56665;41.106;16.688;2022-08-20T10:53:29;31.60;50.41
69464;DHT22;56665;41.106;16.688;2022-08-20T10:56:35;31.53;50.57
69464;DHT22;56665;41.106;16.688;2022-08-20T10:59:40;31.57;50.75
69464;DHT22;56665;41.106;16.688;2022-08-20T11:02:45;32.93;47.83
69464;DHT22;56665;41.106;16.688;2022-08-20T11:05:49;33.74;46.10
69464;DHT22;56665;41.106;16.688;2022-08-20T11:08:54;34.11;46.36
69464;DHT22;56665;41.106;16.688;2022-08-20T11:11:58;33.62;47.38
69464;DHT22;56665;41.106;16.688;2022-08-20T11:15:02;33.74;46.59
69464;DHT22;56665;41.106;16.688;2022-08-20T11:18:08;33.97;45.95
69464;DHT22;56665;41.106;16.688;2022-08-20T11:21:11;34.57;45.14
69464;DHT22;56665;41.106;16.688;2022-08-20T11:24:15;34.98;44.69
69464;DHT22;56665;41.106;16.688;2022-08-20T11:27:28;35.37;43.93
69464;DHT22;56665;41.106;16.688;2022-08-20T11:30:34;35.20;43.63
69464;DHT22;56665;41.106;16.688;2022-08-20T11:33:39;34.91;45.01
69464;DHT22;56665;41.106;16.688;2022-08-20T11:36:45;34.87;45.38
69464;DHT22;56665;41.106;16.688;2022-08-20T11:39:50;33.75;47.72
69464;DHT22;56665;41.106;16.688;2022-08-20T11:42:54;32.04;51.66
69464;DHT22;56665;41.106;16.688;2022-08-20T11:45:58;31.15;54.20
69464;DHT22;56665;41.106;16.688;2022-08-20T11:49:02;30.77;54.40
69464;DHT22;56665;41.106;16.688;2022-08-20T11:52:06;30.69;54.90
69464;DHT22;56665;41.106;16.688;2022-08-20T11:55:13;31.53;52.72
69464;DHT22;56665;41.106;16.688;2022-08-20T11:58:17;32.78;50.58
69464;DHT22;56665;41.106;16.688;2022-08-20T12:01:21;32.78;50.26
69464;DHT22;56665;41.106;16.688;2022-08-20T12:04:25;31.97;52.01
69464;DHT22;56665;41.106;16.688;2022-08-20T12:07:29;30.99;53.59
69464;DHT22;56665;41.106;16.688;2022-08-20T12:10:33;30.50;55.24
69464;DHT22;56665;41.106;16.688;2022-08-20T12:13:37;30.17;55.84
69464;DHT22;56665;41.106;16.688;2022-08-20T12:16:42;30.50;55.40
69464;DHT22;56665;41.106;16.688;2022-08-20T12:19:46;30.95;53.78
69464;DHT22;56665;41.106;16.688;2022-08-20T12:22:50;30.71;54.39
69464;DHT22;56665;41.106;16.688;2022-08-20T12:25:55;30.19;55.94
69464;DHT22;56665;41.106;16.688;2022-08-20T12:29:00;30.09;56.07
69464;DHT22;56665;41.106;16.688;2022-08-20T12:32:05;30.21;55.76
69464;DHT22;56665;41.106;16.688;2022-08-20T12:35:12;31.02;53.52
69464;DHT22;56665;41.106;16.688;2022-08-20T12:38:15;31.18;53.80
69464;DHT22;56665;41.106;16.688;2022-08-20T12:41:19;31.14;53.87
69464;DHT22;56665;41.106;16.688;2022-08-20T12:44:23;31.19;54.19
69464;DHT22;56665;41.106;16.688;2022-08-20T12:47:30;30.95;54.77
69464;DHT22;56665;41.106;16.688;2022-08-20T12:50:37;31.12;54.39
69464;DHT22;56665;41.106;16.688;2022-08-20T12:53:41;31.21;54.14
69464;DHT22;56665;41.106;16.688;2022-08-20T12:56:45;31.43;53.64
69464;DHT22;56665;41.106;16.688;2022-08-20T12:59:49;31.32;53.12
69464;DHT22;56665;41.106;16.688;2022-08-20T13:02:56;30.91;53.66
69464;DHT22;56665;41.106;16.688;2022-08-20T13:06:00;30.98;52.81
69464;DHT22;56665;41.106;16.688;2022-08-20T13:09:03;31.19;52.21
69464;DHT22;56665;41.106;16.688;2022-08-20T13:12:08;31.40;51.40
69464;DHT22;56665;41.106;16.688;2022-08-20T13:15:12;31.56;50.36
69464;DHT22;56665;41.106;16.688;2022-08-20T13:18:16;31.47;50.63
69464;DHT22;56665;41.106;16.688;2022-08-20T13:21:20;31.45;50.75
69464;DHT22;56665;41.106;16.688;2022-08-20T13:24:24;31.50;50.30
69464;DHT22;56665;41.106;16.688;2022-08-20T13:27:28;31.49;50.72
69464;DHT22;56665;41.106;16.688;2022-08-20T13:30:33;31.11;51.86
69464;DHT22;56665;41.106;16.688;2022-08-20T13:33:39;31.36;51.34
69464;DHT22;56665;41.106;16.688;2022-08-20T13:36:43;31.39;50.79
69464;DHT22;56665;41.106;16.688;2022-08-20T13:39:47;31.35;51.14
69464;DHT22;56665;41.106;16.688;2022-08-20T13:42:50;31.47;51.50
69464;DHT22;56665;41.106;16.688;2022-08-20T13:45:54;32.21;50.21
69464;DHT22;56665;41.106;16.688;2022-08-20T13:48:58;32.82;49.13
69464;DHT22;56665;41.106;16.688;2022-08-20T13:52:03;33.72;47.64
69464;DHT22;56665;41.106;16.688;2022-08-20T13:55:09;33.98;46.54
69464;DHT22;56665;41.106;16.688;2022-08-20T13:58:12;34.26;45.85
69464;DHT22;56665;41.106;16.688;2022-08-20T14:01:16;34.11;45.68
69464;DHT22;56665;41.106;16.688;2022-08-20T14:04:20;33.97;46.27
69464;DHT22;56665;41.106;16.688;2022-08-20T14:07:26;33.95;45.72
69464;DHT22;56665;41.106;16.688;2022-08-20T14:10:30;33.85;45.60
69464;DHT22;56665;41.106;16.688;2022-08-20T14:13:35;33.23;46.63
69464;DHT22;56665;41.106;16.688;2022-08-20T14:16:39;33.03;46.99
69464;DHT22;56665;41.106;16.688;2022-08-20T14:19:45;32.68;47.76
69464;DHT22;56665;41.106;16.688;2022-08-20T14:22:50;32.72;47.76
69464;DHT22;56665;41.106;16.688;2022-08-20T14:25:53;32.42;48.75
69464;DHT22;56665;41.106;16.688;2022-08-20T14:28:57;31.73;50.46
69464;DHT22;56665;41.106;16.688;2022-08-20T14:32:02;31.09;51.99
69464;DHT22;56665;41.106;16.688;2022-08-20T14:35:07;30.98;52.43
69464;DHT22;56665;41.106;16.688;2022-08-20T14:38:11;31.19;52.67
69464;DHT22;56665;41.106;16.688;2022-08-20T14:41:15;30.61;53.82
69464;DHT22;56665;41.106;16.688;2022-08-20T14:44:18;30.40;54.32
69464;DHT22;56665;41.106;16.688;2022-08-20T14:47:25;30.24;54.91
69464;DHT22;56665;41.106;16.688;2022-08-20T14:50:32;30.61;53.64
69464;DHT22;56665;41.106;16.688;2022-08-20T14:53:37;31.08;52.59
69464;DHT22;56665;41.106;16.688;2022-08-20T14:56:40;31.15;52.47
69464;DHT22;56665;41.106;16.688;2022-08-20T14:59:44;31.21;52.42
69464;DHT22;56665;41.106;16.688;2022-08-20T15:02:50;30.98;52.95
69464;DHT22;56665;41.106;16.688;2022-08-20T15:05:53;30.82;53.31
69464;DHT22;56665;41.106;16.688;2022-08-20T15:08:57;30.31;54.40
69464;DHT22;56665;41.106;16.688;2022-08-20T15:12:01;30.16;54.81
69464;DHT22;56665;41.106;16.688;2022-08-20T15:15:08;30.00;55.33
69464;DHT22;56665;41.106;16.688;2022-08-20T15:18:12;29.92;55.65
69464;DHT22;56665;41.106;16.688;2022-08-20T15:21:16;29.82;56.11
69464;DHT22;56665;41.106;16.688;2022-08-20T15:24:20;30.02;55.72
69464;DHT22;56665;41.106;16.688;2022-08-20T15:27:24;30.12;54.93
69464;DHT22;56665;41.106;16.688;2022-08-20T15:30:29;29.85;55.32
69464;DHT22;56665;41.106;16.688;2022-08-20T15:33:33;29.89;55.09
69464;DHT22;56665;41.106;16.688;2022-08-20T15:36:36;29.90;54.88
69464;DHT22;56665;41.106;16.688;2022-08-20T15:39:41;29.75;55.06
69464;DHT22;56665;41.106;16.688;2022-08-20T15:42:45;29.28;56.30
69464;DHT22;56665;41.106;16.688;2022-08-20T15:45:50;29.28;56.43
69464;DHT22;56665;41.106;16.688;2022-08-20T15:48:55;29.31;56.18
69464;DHT22;56665;41.106;16.688;2022-08-20T15:51:58;29.12;56.40
69464;DHT22;56665;41.106;16.688;2022-08-20T15:55:05;29.06;56.49
69464;DHT22;56665;41.106;16.688;2022-08-20T15:58:45;28.87;57.01
69464;DHT22;56665;41.106;16.688;2022-08-20T16:01:58;28.70;57.89
69464;DHT22;56665;41.106;16.688;2022-08-20T16:09:12;28.28;60.16
69464;DHT22;56665;41.106;16.688;2022-08-20T16:12:33;28.27;59.86
69464;DHT22;56665;41.106;16.688;2022-08-20T16:15:41;28.14;60.11
69464;DHT22;56665;41.106;16.688;2022-08-20T16:18:50;28.04;60.40
69464;DHT22;56665;41.106;16.688;2022-08-20T16:21:56;27.85;60.82
69464;DHT22;56665;41.106;16.688;2022-08-20T16:25:00;27.78;60.98
69464;DHT22;56665;41.106;16.688;2022-08-20T16:28:24;27.73;60.98
69464;DHT22;56665;41.106;16.688;2022-08-20T16:31:35;27.60;61.37
69464;DHT22;56665;41.106;16.688;2022-08-20T16:34:54;27.73;60.65
69464;DHT22;56665;41.106;16.688;2022-08-20T16:41:25;27.88;60.09
69464;DHT22;56665;41.106;16.688;2022-08-20T16:44:41;27.85;60.30
69464;DHT22;56665;41.106;16.688;2022-08-20T16:47:48;27.78;60.44
69464;DHT22;56665;41.106;16.688;2022-08-20T16:50:59;27.78;60.34
69464;DHT22;56665;41.106;16.688;2022-08-20T16:54:04;27.80;60.11
69464;DHT22;56665;41.106;16.688;2022-08-20T16:57:09;27.78;60.11
69464;DHT22;56665;41.106;16.688;2022-08-20T17:00:22;27.71;60.36
69464;DHT22;56665;41.106;16.688;2022-08-20T17:03:28;27.73;60.61
69464;DHT22;56665;41.106;16.688;2022-08-20T17:06:37;27.76;60.67
69464;DHT22;56665;41.106;16.688;2022-08-20T17:09:42;27.74;60.17
69464;DHT22;56665;41.106;16.688;2022-08-20T17:12:54;27.71;59.58
69464;DHT22;56665;41.106;16.688;2022-08-20T17:16:19;27.69;59.38
69464;DHT22;56665;41.106;16.688;2022-08-20T17:19:27;27.63;59.47
69464;DHT22;56665;41.106;16.688;2022-08-20T17:22:39;27.61;59.43
69464;DHT22;56665;41.106;16.688;2022-08-20T17:25:54;27.60;59.12
69464;DHT22;56665;41.106;16.688;2022-08-20T17:29:02;27.56;58.28
69464;DHT22;56665;41.106;16.688;2022-08-20T17:32:28;27.51;57.95
69464;DHT22;56665;41.106;16.688;2022-08-20T17:35:37;27.50;57.84
69464;DHT22;56665;41.106;16.688;2022-08-20T17:38:49;27.43;57.85
69464;DHT22;56665;41.106;16.688;2022-08-20T17:42:06;27.43;58.21
69464;DHT22;56665;41.106;16.688;2022-08-20T17:45:15;27.43;58.63
69464;DHT22;56665;41.106;16.688;2022-08-20T17:48:29;27.39;58.95
69464;DHT22;56665;41.106;16.688;2022-08-20T17:51:45;27.40;59.36
69464;DHT22;56665;41.106;16.688;2022-08-20T17:54:51;27.30;59.19
69464;DHT22;56665;41.106;16.688;2022-08-20T17:57:56;27.30;59.29
69464;DHT22;56665;41.106;16.688;2022-08-20T18:01:02;27.19;59.27
69464;DHT22;56665;41.106;16.688;2022-08-20T18:04:06;27.15;59.31
69464;DHT22;56665;41.106;16.688;2022-08-20T18:10:19;27.11;59.41
69464;DHT22;56665;41.106;16.688;2022-08-20T18:13:47;27.08;59.55
69464;DHT22;56665;41.106;16.688;2022-08-20T18:23:44;27.06;59.48
69464;DHT22;56665;41.106;16.688;2022-08-20T18:26:57;27.05;59.57
69464;DHT22;56665;41.106;16.688;2022-08-20T18:30:16;27.03;59.65
69464;DHT22;56665;41.106;16.688;2022-08-20T18:33:28;26.95;59.77
69464;DHT22;56665;41.106;16.688;2022-08-20T18:36:32;26.95;59.99
69464;DHT22;56665;41.106;16.688;2022-08-20T18:39:43;26.89;60.27
69464;DHT22;56665;41.106;16.688;2022-08-20T18:42:46;26.80;60.48
69464;DHT22;56665;41.106;16.688;2022-08-20T18:45:50;26.72;60.52
69464;DHT22;56665;41.106;16.688;2022-08-20T18:48:58;26.58;60.74
69464;DHT22;56665;41.106;16.688;2022-08-20T18:52:14;26.64;61.30
69464;DHT22;56665;41.106;16.688;2022-08-20T18:55:37;26.62;61.53
69464;DHT22;56665;41.106;16.688;2022-08-20T18:58:53;26.64;61.51
69464;DHT22;56665;41.106;16.688;2022-08-20T19:02:12;26.62;61.65
69464;DHT22;56665;41.106;16.688;2022-08-20T19:05:25;26.61;61.82
69464;DHT22;56665;41.106;16.688;2022-08-20T19:08:41;26.60;61.90
69464;DHT22;56665;41.106;16.688;2022-08-20T19:15:15;26.62;61.48
69464;DHT22;56665;41.106;16.688;2022-08-20T19:21:41;26.48;61.83
69464;DHT22;56665;41.106;16.688;2022-08-20T19:24:52;26.47;61.77
69464;DHT22;56665;41.106;16.688;2022-08-20T19:27:59;26.44;61.78
69464;DHT22;56665;41.106;16.688;2022-08-20T19:31:16;26.40;61.88
69464;DHT22;56665;41.106;16.688;2022-08-20T19:34:22;26.34;62.01
69464;DHT22;56665;41.106;16.688;2022-08-20T19:37:35;26.36;61.99
69464;DHT22;56665;41.106;16.688;2022-08-20T19:40:42;26.33;61.99